createdAt,value
2023-04-07T00:01:54.603Z,78.24
2023-04-07T00:04:21.334Z,78.54
2023-04-07T00:06:47.955Z,78.43
2023-04-07T00:09:14.530Z,78.67
2023-04-07T00:11:41.513Z,78.30
2023-04-07T00:14:08.123Z,78.53
2023-04-07T00:16:34.645Z,78.23
2023-04-07T00:19:01.400Z,78.23
2023-04-07T00:21:28.061Z,78.23
2023-04-07T00:23:54.836Z,78.30
2023-04-07T00:26:21.818Z,78.45
2023-04-07T00:28:48.369Z,78.59
2023-04-07T00:31:15.001Z,78.65
2023-04-07T00:33:41.544Z,78.63
2023-04-07T00:36:08.259Z,78.60
2023-04-07T00:38:34.847Z,78.84
2023-04-07T00:41:01.877Z,79.10
2023-04-07T00:43:28.417Z,79.08
2023-04-07T00:45:55.321Z,79.63
2023-04-07T00:48:22.325Z,79.95
2023-04-07T00:50:48.969Z,79.88
2023-04-07T00:53:16.302Z,79.75
2023-04-07T00:55:43.241Z,79.93
2023-04-07T00:58:09.776Z,80.39
2023-04-07T01:00:45.621Z,80.72
2023-04-07T01:03:31.330Z,80.95
2023-04-07T01:06:02.505Z,81.24
2023-04-07T01:08:54.566Z,81.41
2023-04-07T01:11:48.503Z,81.38
2023-04-07T01:14:17.180Z,82.14
2023-04-07T01:16:50.585Z,81.98
2023-04-07T01:19:38.098Z,82.23
2023-04-07T01:22:11.004Z,82.01
2023-04-07T01:25:05.806Z,82.14
2023-04-07T01:27:53.641Z,81.97
2023-04-07T01:30:22.679Z,81.60
2023-04-07T01:32:52.070Z,82.12
2023-04-07T01:35:19.575Z,81.83
2023-04-07T01:37:48.975Z,82.14
2023-04-07T01:40:16.699Z,82.64
2023-04-07T01:42:44.753Z,82.83
2023-04-07T01:45:11.734Z,82.72
2023-04-07T01:47:39.368Z,82.95
2023-04-07T01:50:09.258Z,82.71
2023-04-07T01:52:36.997Z,83.06
2023-04-07T01:55:07.694Z,83.18
2023-04-07T01:57:34.215Z,83.13
2023-04-07T02:00:01.010Z,83.44
2023-04-07T02:02:28.562Z,84.10
2023-04-07T02:05:05.871Z,84.06
2023-04-07T02:07:55.804Z,84.30
2023-04-07T02:10:25.637Z,84.11
2023-04-07T02:12:52.703Z,84.03
2023-04-07T02:15:19.697Z,84.08
2023-04-07T02:17:49.985Z,84.08
2023-04-07T02:20:17.848Z,84.04
2023-04-07T02:22:44.869Z,84.47
2023-04-07T02:25:31.702Z,84.28
2023-04-07T02:27:59.484Z,84.13
2023-04-07T02:30:26.789Z,83.96
2023-04-07T02:32:53.830Z,83.78
2023-04-07T02:35:21.193Z,83.92
2023-04-07T02:37:47.848Z,83.94
2023-04-07T02:40:14.580Z,83.86
2023-04-07T02:42:41.415Z,83.91
2023-04-07T02:45:09.199Z,83.63
2023-04-07T02:47:36.665Z,83.58
2023-04-07T02:50:04.186Z,83.76
2023-04-07T02:52:30.859Z,83.71
2023-04-07T02:54:57.460Z,83.75
2023-04-07T02:57:24.032Z,83.80
2023-04-07T02:59:50.557Z,83.66
2023-04-07T03:02:17.244Z,83.49
2023-04-07T03:04:43.883Z,83.58
2023-04-07T03:07:10.638Z,83.55
2023-04-07T03:09:37.228Z,83.41
2023-04-07T03:12:03.907Z,83.39
2023-04-07T03:14:30.443Z,83.50
2023-04-07T03:16:57.438Z,82.93
2023-04-07T03:19:24.012Z,82.55
2023-04-07T03:21:50.560Z,82.39
2023-04-07T03:24:17.476Z,81.79
2023-04-07T03:26:44.176Z,81.23
2023-04-07T03:29:10.742Z,80.81
2023-04-07T03:31:37.819Z,80.76
2023-04-07T03:34:04.872Z,80.83
2023-04-07T03:36:34.523Z,80.83
2023-04-07T03:39:01.074Z,80.44
2023-04-07T03:41:27.572Z,80.02
2023-04-07T03:43:54.353Z,80.01
2023-04-07T03:46:21.562Z,79.47
2023-04-07T03:48:48.308Z,79.14
2023-04-07T03:51:15.495Z,78.93
2023-04-07T03:53:42.082Z,78.66
2023-04-07T03:56:08.709Z,78.28
2023-04-07T03:58:35.442Z,78.32
2023-04-07T04:01:02.010Z,77.74
2023-04-07T04:03:28.601Z,78.03
2023-04-07T04:05:55.268Z,77.49
2023-04-07T04:08:21.811Z,77.31
2023-04-07T04:10:48.414Z,77.29
2023-04-07T04:13:14.948Z,77.28
2023-04-07T04:15:41.566Z,76.98
2023-04-07T04:18:08.829Z,76.97
2023-04-07T04:20:35.484Z,76.75
2023-04-07T04:23:02.416Z,76.72
2023-04-07T04:25:28.979Z,76.78
2023-04-07T04:27:56.070Z,76.51
2023-04-07T04:30:22.652Z,76.76
2023-04-07T04:32:49.864Z,77.07
2023-04-07T04:35:16.621Z,76.77
2023-04-07T04:37:43.162Z,76.89
2023-04-07T04:40:10.495Z,76.86
2023-04-07T04:42:37.078Z,77.17
2023-04-07T04:45:04.023Z,76.88
2023-04-07T04:47:30.816Z,77.08
2023-04-07T04:49:57.477Z,77.23
2023-04-07T04:52:24.041Z,77.37
2023-04-07T04:54:50.650Z,77.21
2023-04-07T04:57:17.178Z,78.28
2023-04-07T04:59:43.717Z,77.64
2023-04-07T05:02:10.473Z,76.84
2023-04-07T05:04:37.412Z,75.09
2023-04-07T05:07:04.464Z,74.77
2023-04-07T05:09:31.445Z,74.83
2023-04-07T05:11:58.155Z,75.32
2023-04-07T05:14:24.668Z,76.41
2023-04-07T05:16:51.614Z,76.44
2023-04-07T05:19:18.119Z,75.33
2023-04-07T05:21:44.647Z,73.82
2023-04-07T05:24:11.201Z,73.54
2023-04-07T05:26:37.767Z,72.70
2023-04-07T05:29:04.364Z,71.97
2023-04-07T05:31:31.048Z,72.27
2023-04-07T05:33:57.638Z,72.44
2023-04-07T05:36:24.412Z,72.42
2023-04-07T05:38:51.625Z,72.65
2023-04-07T05:41:18.198Z,72.84
2023-04-07T05:43:44.750Z,72.55
2023-04-07T05:46:11.377Z,72.52
2023-04-07T05:48:38.005Z,72.91
2023-04-07T05:51:04.550Z,71.69
2023-04-07T05:53:31.345Z,72.51
2023-04-07T05:55:57.891Z,73.38
2023-04-07T05:58:24.408Z,74.40
2023-04-07T06:00:50.912Z,75.58
2023-04-07T06:03:17.731Z,75.63
2023-04-07T06:05:46.879Z,75.78
2023-04-07T06:08:13.521Z,76.56
2023-04-07T06:10:41.863Z,77.27
2023-04-07T06:13:08.424Z,77.64
2023-04-07T06:15:35.260Z,78.20
2023-04-07T06:18:01.842Z,78.39
2023-04-07T06:20:28.459Z,78.45
2023-04-07T06:22:55.275Z,78.85
2023-04-07T06:25:21.944Z,78.88
2023-04-07T06:27:48.537Z,78.93
2023-04-07T06:30:16.153Z,79.12
2023-04-07T06:32:42.779Z,78.76
2023-04-07T06:35:09.513Z,79.09
2023-04-07T06:37:36.654Z,79.13
2023-04-07T06:40:03.553Z,79.07
2023-04-07T06:42:30.789Z,79.09
2023-04-07T06:44:57.561Z,79.09
2023-04-07T06:47:24.289Z,78.90
2023-04-07T06:49:51.164Z,78.85
2023-04-07T06:52:17.753Z,78.59
2023-04-07T06:54:44.763Z,78.72
2023-04-07T06:57:12.268Z,78.59
2023-04-07T06:59:39.321Z,78.48
2023-04-07T07:02:07.708Z,78.40
2023-04-07T07:04:35.415Z,77.77
2023-04-07T07:07:03.283Z,77.94
2023-04-07T07:09:29.801Z,77.89
2023-04-07T07:11:56.353Z,77.62
2023-04-07T07:14:22.871Z,77.81
2023-04-07T07:16:49.381Z,77.56
2023-04-07T07:19:16.290Z,77.22
2023-04-07T07:21:42.804Z,76.73
2023-04-07T07:24:09.346Z,76.50
2023-04-07T07:26:36.013Z,76.87
2023-04-07T07:29:03.682Z,76.84
2023-04-07T07:31:31.508Z,76.63
2023-04-07T07:33:58.367Z,77.12
2023-04-07T07:36:25.197Z,76.66
2023-04-07T07:38:51.986Z,76.55
2023-04-07T07:41:18.568Z,76.73
2023-04-07T07:43:45.599Z,76.35
2023-04-07T07:46:12.423Z,75.60
2023-04-07T07:48:39.129Z,76.11
2023-04-07T07:51:06.008Z,75.65
2023-04-07T07:53:32.612Z,75.73
2023-04-07T07:55:59.359Z,75.36
2023-04-07T07:58:25.893Z,75.74
2023-04-07T08:00:52.426Z,75.50
2023-04-07T08:03:20.278Z,74.36
2023-04-07T08:05:48.741Z,74.84
2023-04-07T08:08:15.734Z,73.96
2023-04-07T08:10:42.275Z,74.01
2023-04-07T08:13:09.043Z,73.61
2023-04-07T08:15:35.964Z,73.37
2023-04-07T08:18:04.624Z,73.54
2023-04-07T08:20:31.953Z,73.10
2023-04-07T08:22:58.803Z,72.94
2023-04-07T08:25:25.760Z,73.68
2023-04-07T08:27:52.551Z,73.88
2023-04-07T08:30:21.120Z,73.85
2023-04-07T08:32:48.123Z,74.35
2023-04-07T08:35:14.727Z,74.09
2023-04-07T08:37:44.238Z,73.79
2023-04-07T08:40:11.903Z,73.65
2023-04-07T08:42:42.948Z,73.90
2023-04-07T08:45:10.067Z,73.77
2023-04-07T08:47:37.651Z,73.40
2023-04-07T08:50:09.973Z,73.62
2023-04-07T08:52:50.722Z,73.66
2023-04-07T08:55:17.375Z,73.51
2023-04-07T08:57:44.100Z,73.47
2023-04-07T09:00:11.644Z,73.14
2023-04-07T09:02:39.833Z,74.11
2023-04-07T09:05:08.592Z,72.58
2023-04-07T09:07:37.282Z,72.96
2023-04-07T09:10:04.939Z,74.04
2023-04-07T09:12:32.589Z,74.67
2023-04-07T09:14:59.562Z,75.11
2023-04-07T09:17:27.341Z,75.54
2023-04-07T09:19:58.619Z,75.80
2023-04-07T09:22:45.807Z,76.03
2023-04-07T09:25:24.082Z,76.15
2023-04-07T09:28:01.554Z,76.61
2023-04-07T09:30:29.946Z,76.61
2023-04-07T09:32:57.661Z,76.95
2023-04-07T09:35:24.858Z,76.90
2023-04-07T09:38:07.779Z,76.35
2023-04-07T09:40:34.978Z,75.91
2023-04-07T09:43:03.129Z,76.08
2023-04-07T09:45:37.157Z,75.58
2023-04-07T09:48:21.115Z,75.34
2023-04-07T09:50:49.610Z,75.39
2023-04-07T09:53:17.113Z,75.08
2023-04-07T09:55:44.375Z,74.09
2023-04-07T09:58:17.170Z,74.10
2023-04-07T10:00:44.341Z,74.86
2023-04-07T10:03:11.266Z,74.80
2023-04-07T10:05:39.280Z,75.30
2023-04-07T10:08:10.119Z,75.30
2023-04-07T10:10:37.110Z,75.31
2023-04-07T10:13:06.561Z,75.86
2023-04-07T10:15:33.420Z,76.13
2023-04-07T10:18:00.909Z,75.81
2023-04-07T10:20:29.124Z,76.24
2023-04-07T10:23:02.555Z,76.64
2023-04-07T10:25:29.762Z,76.18
2023-04-07T10:28:16.330Z,76.83
2023-04-07T10:30:43.639Z,76.17
2023-04-07T10:33:10.598Z,75.83
2023-04-07T10:36:08.623Z,75.62
2023-04-07T10:38:35.552Z,74.92
2023-04-07T10:41:37.314Z,74.49
2023-04-07T10:44:04.724Z,74.58
2023-04-07T10:47:02.588Z,74.91
2023-04-07T10:49:29.116Z,74.54
2023-04-07T10:52:14.867Z,74.20
2023-04-07T10:54:41.590Z,73.96
2023-04-07T10:57:10.161Z,73.50
2023-04-07T10:59:38.129Z,73.95
2023-04-07T11:02:30.964Z,73.45
2023-04-07T11:04:57.734Z,72.86
2023-04-07T11:07:44.194Z,71.47
2023-04-07T11:10:16.007Z,70.97
2023-04-07T11:12:43.877Z,70.42
2023-04-07T11:15:22.077Z,70.38
2023-04-07T11:18:27.075Z,70.02
2023-04-07T11:20:57.573Z,69.53
2023-04-07T11:23:28.510Z,69.39
2023-04-07T11:26:02.869Z,69.28
2023-04-07T11:28:30.018Z,68.01
2023-04-07T11:30:58.256Z,68.29
2023-04-07T11:33:28.145Z,67.55
2023-04-07T11:35:57.765Z,66.67
2023-04-07T11:38:27.419Z,66.85
2023-04-07T11:40:55.549Z,67.79
2023-04-07T11:43:27.166Z,67.12
2023-04-07T11:46:17.650Z,67.37
2023-04-07T11:48:45.721Z,68.04
2023-04-07T11:51:21.158Z,67.64
2023-04-07T11:53:48.113Z,67.41
2023-04-07T11:56:17.502Z,68.58
2023-04-07T11:59:03.007Z,67.39
2023-04-07T12:01:42.029Z,66.83
2023-04-07T12:04:13.912Z,67.25
2023-04-07T12:06:42.001Z,67.71
2023-04-07T12:09:27.375Z,65.89
2023-04-07T12:11:53.989Z,67.02
2023-04-07T12:14:20.539Z,67.03
2023-04-07T12:16:47.125Z,67.99
2023-04-07T12:19:13.661Z,68.53
2023-04-07T12:21:40.312Z,69.09
2023-04-07T12:24:06.934Z,69.55
2023-04-07T12:26:33.570Z,69.20
2023-04-07T12:29:05.186Z,68.91
2023-04-07T12:31:32.961Z,69.07
2023-04-07T12:33:59.723Z,69.20
2023-04-07T12:36:27.710Z,69.64
2023-04-07T12:38:54.770Z,70.87
2023-04-07T12:41:21.337Z,71.12
2023-04-07T12:43:48.621Z,71.95
2023-04-07T12:46:15.675Z,72.78
2023-04-07T12:48:42.314Z,72.78
2023-04-07T12:51:08.923Z,73.92
2023-04-07T12:53:35.506Z,73.99
2023-04-07T12:56:02.466Z,73.86
2023-04-07T12:58:29.220Z,73.41
2023-04-07T13:00:56.767Z,73.50
2023-04-07T13:03:23.739Z,72.88
2023-04-07T13:05:50.676Z,72.59
2023-04-07T13:08:17.250Z,72.13
2023-04-07T13:10:43.828Z,72.18
2023-04-07T13:13:10.413Z,72.71
2023-04-07T13:15:37.029Z,72.10
2023-04-07T13:18:03.888Z,71.97
2023-04-07T13:20:30.543Z,71.96
2023-04-07T13:23:07.868Z,71.00
2023-04-07T13:25:37.557Z,71.34
2023-04-07T13:28:04.450Z,70.31
2023-04-07T13:30:31.166Z,71.10
2023-04-07T13:32:58.085Z,70.06
2023-04-07T13:35:24.864Z,69.93
2023-04-07T13:37:51.397Z,68.62
2023-04-07T13:40:18.196Z,68.04
2023-04-07T13:42:44.797Z,66.36
2023-04-07T13:45:11.442Z,65.42
2023-04-07T13:47:38.691Z,65.58
2023-04-07T13:50:05.759Z,63.46
2023-04-07T13:52:35.183Z,63.84
2023-04-07T13:55:03.794Z,63.31
2023-04-07T13:57:30.463Z,61.99
2023-04-07T13:59:57.184Z,61.95
2023-04-07T14:02:24.949Z,59.57
2023-04-07T14:04:51.980Z,59.49
2023-04-07T14:07:18.600Z,57.16
2023-04-07T14:09:46.229Z,56.83
2023-04-07T14:12:12.757Z,55.08
2023-04-07T14:14:39.461Z,50.58
2023-04-07T14:17:06.659Z,49.94
2023-04-07T14:19:33.597Z,47.04
2023-04-07T14:22:00.381Z,47.22
2023-04-07T14:24:27.197Z,46.36
2023-04-07T14:26:54.684Z,47.15
2023-04-07T14:29:22.300Z,47.36
2023-04-07T14:31:48.890Z,47.05
2023-04-07T14:34:15.659Z,47.57
2023-04-07T14:36:42.984Z,49.52
2023-04-07T14:39:09.450Z,48.36
2023-04-07T14:41:36.039Z,47.24
2023-04-07T14:44:03.036Z,46.18
2023-04-07T14:46:29.642Z,44.48
2023-04-07T14:48:58.403Z,44.06
2023-04-07T14:51:25.121Z,42.12
2023-04-07T14:53:55.916Z,40.74
2023-04-07T14:56:22.833Z,40.01
2023-04-07T14:58:49.418Z,38.45
2023-04-07T15:01:16.961Z,38.92
2023-04-07T15:03:44.608Z,38.71
2023-04-07T15:06:12.243Z,39.49
2023-04-07T15:08:38.856Z,39.55
2023-04-07T15:11:08.842Z,39.92
2023-04-07T15:13:36.291Z,40.95
2023-04-07T15:16:13.285Z,40.72
2023-04-07T15:18:42.504Z,41.89
2023-04-07T15:21:10.015Z,40.93
2023-04-07T15:23:40.467Z,38.43
2023-04-07T15:26:07.345Z,37.56
2023-04-07T15:28:34.109Z,35.94
2023-04-07T15:31:01.434Z,36.78
2023-04-07T15:33:28.094Z,37.70
2023-04-07T15:35:54.699Z,39.43
2023-04-07T15:38:21.406Z,41.11
2023-04-07T15:40:47.957Z,42.21
2023-04-07T15:43:14.621Z,43.57
2023-04-07T15:45:44.899Z,43.72
2023-04-07T15:48:12.529Z,45.21
2023-04-07T15:50:39.564Z,46.20
2023-04-07T15:53:06.763Z,46.67
2023-04-07T15:55:34.123Z,46.98
2023-04-07T15:58:01.966Z,47.28
2023-04-07T16:00:29.707Z,46.85
2023-04-07T16:02:56.358Z,46.58
2023-04-07T16:05:23.026Z,46.77
2023-04-07T16:07:49.713Z,47.08
2023-04-07T16:10:19.702Z,47.21
2023-04-07T16:12:47.151Z,47.71
2023-04-07T16:15:15.508Z,47.66
2023-04-07T16:17:46.187Z,47.63
2023-04-07T16:20:16.048Z,48.09
2023-04-07T16:22:48.133Z,48.44
2023-04-07T16:25:15.566Z,47.74
2023-04-07T16:27:42.458Z,47.95
2023-04-07T16:30:09.521Z,47.44
2023-04-07T16:32:36.070Z,46.40
2023-04-07T16:35:03.274Z,44.06
2023-04-07T16:37:30.481Z,43.08
2023-04-07T16:39:57.832Z,40.76
2023-04-07T16:42:26.420Z,41.15
2023-04-07T16:44:52.996Z,41.48
2023-04-07T16:47:19.669Z,42.16
2023-04-07T16:49:46.429Z,42.83
2023-04-07T16:52:13.017Z,43.83
2023-04-07T16:54:39.587Z,44.53
2023-04-07T16:57:06.216Z,44.87
2023-04-07T16:59:32.808Z,46.19
2023-04-07T17:01:59.439Z,46.53
2023-04-07T17:04:26.168Z,46.46
2023-04-07T17:06:52.720Z,46.77
2023-04-07T17:09:20.005Z,47.28
2023-04-07T17:11:46.547Z,46.58
2023-04-07T17:14:13.166Z,46.48
2023-04-07T17:16:39.710Z,47.18
2023-04-07T17:19:06.327Z,47.36
2023-04-07T17:21:32.889Z,47.25
2023-04-07T17:23:59.417Z,48.07
2023-04-07T17:26:26.163Z,47.83
2023-04-07T17:28:52.745Z,48.10
2023-04-07T17:31:19.332Z,48.54
2023-04-07T17:33:47.680Z,48.23
2023-04-07T17:36:14.579Z,48.59
2023-04-07T17:38:41.348Z,48.82
2023-04-07T17:41:07.896Z,49.37
2023-04-07T17:43:34.473Z,49.80
2023-04-07T17:46:01.503Z,49.84
2023-04-07T17:48:28.053Z,49.51
2023-04-07T17:50:54.576Z,50.15
2023-04-07T17:53:21.161Z,50.97
2023-04-07T17:55:47.715Z,51.32
2023-04-07T17:58:14.612Z,51.16
2023-04-07T18:00:41.372Z,51.73
2023-04-07T18:03:08.280Z,52.48
2023-04-07T18:05:35.906Z,53.11
2023-04-07T18:08:02.583Z,53.54
2023-04-07T18:10:29.336Z,53.15
2023-04-07T18:12:56.194Z,53.89
2023-04-07T18:15:22.738Z,54.23
2023-04-07T18:17:53.026Z,54.15
2023-04-07T18:20:19.982Z,54.58
2023-04-07T18:22:47.408Z,54.22
2023-04-07T18:25:14.065Z,55.23
2023-04-07T18:27:40.635Z,55.48
2023-04-07T18:30:08.152Z,55.37
2023-04-07T18:32:34.706Z,55.26
2023-04-07T18:35:01.341Z,56.10
2023-04-07T18:37:29.582Z,56.47
2023-04-07T18:39:56.245Z,57.07
2023-04-07T18:42:22.810Z,56.96
2023-04-07T18:44:49.339Z,57.20
2023-04-07T18:47:16.066Z,57.55
2023-04-07T18:49:42.646Z,57.77
2023-04-07T18:52:09.550Z,58.63
2023-04-07T18:54:36.294Z,58.93
2023-04-07T18:57:03.061Z,59.51
2023-04-07T18:59:29.704Z,60.16
2023-04-07T19:01:56.816Z,60.93
2023-04-07T19:04:24.952Z,61.21
2023-04-07T19:06:52.068Z,61.57
2023-04-07T19:09:18.603Z,62.36
2023-04-07T19:11:45.433Z,62.34
2023-04-07T19:14:12.883Z,62.87
2023-04-07T19:16:39.754Z,63.41
2023-04-07T19:19:06.378Z,63.97
2023-04-07T19:21:32.957Z,64.29
2023-04-07T19:23:59.912Z,64.01
2023-04-07T19:26:27.905Z,64.53
2023-04-07T19:28:55.938Z,64.35
2023-04-07T19:31:23.318Z,64.50
2023-04-07T19:33:50.041Z,65.03
2023-04-07T19:36:16.888Z,65.74
2023-04-07T19:38:43.483Z,65.70
2023-04-07T19:41:10.399Z,65.74
2023-04-07T19:43:36.931Z,65.99
2023-04-07T19:46:03.840Z,66.53
2023-04-07T19:48:30.650Z,66.79
2023-04-07T19:50:57.273Z,67.20
2023-04-07T19:53:25.415Z,66.95
2023-04-07T19:55:52.161Z,67.26
2023-04-07T19:58:21.020Z,67.70
2023-04-07T20:00:50.743Z,67.68
2023-04-07T20:03:19.820Z,68.06
2023-04-07T20:05:46.447Z,68.34
2023-04-07T20:08:13.002Z,68.72
2023-04-07T20:10:39.550Z,68.73
2023-04-07T20:13:06.529Z,68.91
2023-04-07T20:15:33.110Z,69.05
2023-04-07T20:18:00.207Z,69.34
2023-04-07T20:20:26.903Z,69.65
2023-04-07T20:22:53.458Z,69.88
2023-04-07T20:25:20.138Z,70.04
2023-04-07T20:27:49.121Z,70.26
2023-04-07T20:30:16.357Z,70.61
2023-04-07T20:32:43.534Z,70.68
2023-04-07T20:35:12.050Z,70.65
2023-04-07T20:37:38.682Z,70.68
2023-04-07T20:40:06.377Z,70.44
2023-04-07T20:42:32.950Z,71.02
2023-04-07T20:45:03.814Z,71.27
2023-04-07T20:47:31.371Z,71.22
2023-04-07T20:49:58.761Z,71.76
2023-04-07T20:52:27.049Z,71.66
2023-04-07T20:54:53.666Z,71.94
2023-04-07T20:57:20.199Z,72.30
2023-04-07T20:59:46.747Z,72.38
2023-04-07T21:02:13.357Z,72.46
2023-04-07T21:04:40.026Z,72.70
2023-04-07T21:07:06.566Z,72.98
2023-04-07T21:09:33.153Z,72.52
2023-04-07T21:12:02.101Z,73.25
2023-04-07T21:14:28.713Z,73.69
2023-04-07T21:16:55.262Z,73.68
2023-04-07T21:19:22.268Z,73.85
2023-04-07T21:21:48.811Z,73.81
2023-04-07T21:24:15.437Z,74.16
2023-04-07T21:26:41.974Z,74.38
2023-04-07T21:29:08.515Z,74.74
2023-04-07T21:31:35.226Z,74.64
2023-04-07T21:34:01.896Z,74.26
2023-04-07T21:36:28.556Z,74.05
2023-04-07T21:38:55.078Z,73.71
2023-04-07T21:41:21.964Z,73.67
2023-04-07T21:43:48.457Z,73.72
2023-04-07T21:46:16.669Z,74.05
2023-04-07T21:48:43.322Z,73.83
2023-04-07T21:51:09.867Z,73.62
2023-04-07T21:53:36.499Z,73.42
2023-04-07T21:56:03.329Z,73.22
2023-04-07T21:58:30.059Z,73.24
2023-04-07T22:00:56.633Z,73.76
2023-04-07T22:03:23.682Z,73.61
2023-04-07T22:05:50.508Z,73.76
2023-04-07T22:08:17.952Z,73.88
2023-04-07T22:10:44.492Z,73.83
2023-04-07T22:13:11.121Z,74.49
2023-04-07T22:15:37.752Z,74.54
2023-04-07T22:18:04.895Z,74.48
2023-04-07T22:20:31.502Z,74.77
2023-04-07T22:22:58.216Z,74.71
2023-04-07T22:25:25.557Z,74.78
2023-04-07T22:27:52.636Z,74.99
2023-04-07T22:30:20.520Z,75.15
2023-04-07T22:32:48.056Z,75.11
2023-04-07T22:35:14.864Z,75.60
2023-04-07T22:37:41.386Z,75.78
2023-04-07T22:40:09.425Z,75.21
2023-04-07T22:42:36.186Z,75.61
2023-04-07T22:45:02.998Z,75.61
2023-04-07T22:47:29.542Z,76.18
2023-04-07T22:49:56.495Z,76.33
2023-04-07T22:52:23.341Z,76.73
2023-04-07T22:54:49.898Z,76.41
2023-04-07T22:57:16.657Z,76.59
2023-04-07T22:59:43.168Z,77.18
2023-04-07T23:02:09.844Z,77.26
2023-04-07T23:04:36.637Z,77.63
2023-04-07T23:07:03.129Z,77.80
2023-04-07T23:09:29.627Z,77.66
2023-04-07T23:11:57.030Z,78.12
2023-04-07T23:14:23.657Z,78.21
2023-04-07T23:16:51.177Z,77.97
2023-04-07T23:19:17.805Z,78.67
2023-04-07T23:21:44.341Z,78.69
2023-04-07T23:24:11.170Z,78.82
2023-04-07T23:26:37.887Z,78.51
2023-04-07T23:29:04.588Z,78.79
2023-04-07T23:31:31.641Z,78.72
2023-04-07T23:33:59.742Z,78.94
2023-04-07T23:36:27.166Z,78.83
2023-04-07T23:38:55.977Z,78.92
2023-04-07T23:41:23.360Z,79.14
2023-04-07T23:43:50.037Z,79.21
2023-04-07T23:46:16.639Z,79.33
2023-04-07T23:48:43.165Z,79.42
2023-04-07T23:51:09.736Z,78.98
2023-04-07T23:53:36.372Z,78.83
2023-04-07T23:56:02.895Z,79.41
2023-04-07T23:58:29.435Z,79.12
